sensor_id;sensor_type;location;lat;lon;timestamp;temperature;humidity
13960;DHT22;7052;51.050;3.716;2023-03-01T00:01:05;2.80;81.70
13960;DHT22;7052;51.050;3.716;2023-03-01T00:03:33;2.80;81.90
13960;DHT22;7052;51.050;3.716;2023-03-01T00:06:01;2.80;82.60
13960;DHT22;7052;51.050;3.716;2023-03-01T00:08:29;2.80;83.30
13960;DHT22;7052;51.050;3.716;2023-03-01T00:11:01;2.80;83.60
13960;DHT22;7052;51.050;3.716;2023-03-01T00:13:53;2.80;84.00
13960;DHT22;7052;51.050;3.716;2023-03-01T00:16:28;2.80;84.20
13960;DHT22;7052;51.050;3.716;2023-03-01T00:19:17;2.80;84.80
13960;DHT22;7052;51.050;3.716;2023-03-01T00:21:47;2.80;84.90
13960;DHT22;7052;51.050;3.716;2023-03-01T00:27:35;2.80;84.60
13960;DHT22;7052;51.050;3.716;2023-03-01T00:30:04;2.80;85.20
13960;DHT22;7052;51.050;3.716;2023-03-01T00:32:31;2.80;85.60
13960;DHT22;7052;51.050;3.716;2023-03-01T00:34:58;2.70;85.90
13960;DHT22;7052;51.050;3.716;2023-03-01T00:37:26;2.80;86.50
13960;DHT22;7052;51.050;3.716;2023-03-01T00:39:53;2.70;86.90
13960;DHT22;7052;51.050;3.716;2023-03-01T00:42:20;2.80;87.50
13960;DHT22;7052;51.050;3.716;2023-03-01T00:44:47;2.70;87.70
13960;DHT22;7052;51.050;3.716;2023-03-01T00:47:44;2.70;88.30
13960;DHT22;7052;51.050;3.716;2023-03-01T00:50:43;2.70;88.80
13960;DHT22;7052;51.050;3.716;2023-03-01T00:53:20;2.60;89.10
13960;DHT22;7052;51.050;3.716;2023-03-01T00:55:47;2.60;89.20
13960;DHT22;7052;51.050;3.716;2023-03-01T00:58:14;2.50;89.60
13960;DHT22;7052;51.050;3.716;2023-03-01T01:00:40;2.50;90.00
13960;DHT22;7052;51.050;3.716;2023-03-01T01:03:10;2.40;90.50
13960;DHT22;7052;51.050;3.716;2023-03-01T01:05:37;2.30;90.90
13960;DHT22;7052;51.050;3.716;2023-03-01T01:08:08;2.30;91.30
13960;DHT22;7052;51.050;3.716;2023-03-01T01:10:35;2.20;91.70
13960;DHT22;7052;51.050;3.716;2023-03-01T01:13:02;2.10;92.00
13960;DHT22;7052;51.050;3.716;2023-03-01T01:15:38;2.10;92.40
13960;DHT22;7052;51.050;3.716;2023-03-01T01:18:17;2.10;92.80
13960;DHT22;7052;51.050;3.716;2023-03-01T01:20:44;2.10;93.10
13960;DHT22;7052;51.050;3.716;2023-03-01T01:23:11;2.00;93.30
13960;DHT22;7052;51.050;3.716;2023-03-01T01:25:37;2.00;93.60
13960;DHT22;7052;51.050;3.716;2023-03-01T01:28:04;2.00;93.80
13960;DHT22;7052;51.050;3.716;2023-03-01T01:30:31;2.00;94.10
13960;DHT22;7052;51.050;3.716;2023-03-01T01:32:58;2.00;94.30
13960;DHT22;7052;51.050;3.716;2023-03-01T01:35:30;2.00;94.50
13960;DHT22;7052;51.050;3.716;2023-03-01T01:37:57;2.00;94.70
13960;DHT22;7052;51.050;3.716;2023-03-01T01:40:24;2.00;94.80
13960;DHT22;7052;51.050;3.716;2023-03-01T01:42:51;2.00;95.00
13960;DHT22;7052;51.050;3.716;2023-03-01T01:45:31;1.90;95.10
13960;DHT22;7052;51.050;3.716;2023-03-01T01:48:02;1.90;95.30
13960;DHT22;7052;51.050;3.716;2023-03-01T01:50:34;1.90;95.50
13960;DHT22;7052;51.050;3.716;2023-03-01T01:53:07;1.90;95.60
13960;DHT22;7052;51.050;3.716;2023-03-01T01:55:41;2.00;95.80
13960;DHT22;7052;51.050;3.716;2023-03-01T01:58:15;2.00;95.80
13960;DHT22;7052;51.050;3.716;2023-03-01T02:00:45;2.00;95.80
13960;DHT22;7052;51.050;3.716;2023-03-01T02:03:15;2.10;96.00
13960;DHT22;7052;51.050;3.716;2023-03-01T02:05:52;2.10;96.20
13960;DHT22;7052;51.050;3.716;2023-03-01T02:08:21;2.10;96.50
13960;DHT22;7052;51.050;3.716;2023-03-01T02:10:56;2.10;96.70
13960;DHT22;7052;51.050;3.716;2023-03-01T02:13:25;2.10;97.00
13960;DHT22;7052;51.050;3.716;2023-03-01T02:15:52;2.10;97.20
13960;DHT22;7052;51.050;3.716;2023-03-01T02:18:21;2.10;97.30
13960;DHT22;7052;51.050;3.716;2023-03-01T02:21:00;2.10;97.60
13960;DHT22;7052;51.050;3.716;2023-03-01T02:23:33;2.10;97.70
13960;DHT22;7052;51.050;3.716;2023-03-01T02:26:06;2.10;97.80
13960;DHT22;7052;51.050;3.716;2023-03-01T02:28:36;2.00;97.90
13960;DHT22;7052;51.050;3.716;2023-03-01T02:31:05;2.00;98.00
13960;DHT22;7052;51.050;3.716;2023-03-01T02:33:51;2.00;98.20
13960;DHT22;7052;51.050;3.716;2023-03-01T02:36:20;2.00;98.30
13960;DHT22;7052;51.050;3.716;2023-03-01T02:38:48;2.00;98.40
13960;DHT22;7052;51.050;3.716;2023-03-01T02:41:17;2.00;98.50
13960;DHT22;7052;51.050;3.716;2023-03-01T02:43:47;2.00;98.60
13960;DHT22;7052;51.050;3.716;2023-03-01T02:46:16;2.00;98.50
13960;DHT22;7052;51.050;3.716;2023-03-01T02:48:46;2.00;98.60
13960;DHT22;7052;51.050;3.716;2023-03-01T02:51:23;2.00;98.60
13960;DHT22;7052;51.050;3.716;2023-03-01T02:54:06;2.00;98.60
13960;DHT22;7052;51.050;3.716;2023-03-01T02:56:34;1.90;98.70
13960;DHT22;7052;51.050;3.716;2023-03-01T02:59:03;2.00;98.80
13960;DHT22;7052;51.050;3.716;2023-03-01T03:01:30;1.90;98.80
13960;DHT22;7052;51.050;3.716;2023-03-01T03:04:04;1.90;98.90
13960;DHT22;7052;51.050;3.716;2023-03-01T03:06:32;1.90;99.00
13960;DHT22;7052;51.050;3.716;2023-03-01T03:09:00;1.90;99.00
13960;DHT22;7052;51.050;3.716;2023-03-01T03:11:27;1.90;99.10
13960;DHT22;7052;51.050;3.716;2023-03-01T03:13:54;1.90;99.20
13960;DHT22;7052;51.050;3.716;2023-03-01T03:16:23;1.90;99.40
13960;DHT22;7052;51.050;3.716;2023-03-01T03:18:50;1.90;99.40
13960;DHT22;7052;51.050;3.716;2023-03-01T03:21:17;1.80;99.60
13960;DHT22;7052;51.050;3.716;2023-03-01T03:23:44;1.80;99.70
13960;DHT22;7052;51.050;3.716;2023-03-01T03:26:10;1.80;99.90
13960;DHT22;7052;51.050;3.716;2023-03-01T03:28:40;1.70;99.90
13960;DHT22;7052;51.050;3.716;2023-03-01T03:31:08;1.70;99.90
13960;DHT22;7052;51.050;3.716;2023-03-01T03:33:36;1.70;99.90
13960;DHT22;7052;51.050;3.716;2023-03-01T03:36:04;1.70;99.90
13960;DHT22;7052;51.050;3.716;2023-03-01T03:38:32;1.70;99.90
13960;DHT22;7052;51.050;3.716;2023-03-01T03:41:04;1.70;99.90
13960;DHT22;7052;51.050;3.716;2023-03-01T03:43:34;1.70;99.90
13960;DHT22;7052;51.050;3.716;2023-03-01T03:46:02;1.70;99.90
13960;DHT22;7052;51.050;3.716;2023-03-01T03:48:33;1.70;99.90
13960;DHT22;7052;51.050;3.716;2023-03-01T03:51:01;1.70;99.90
13960;DHT22;7052;51.050;3.716;2023-03-01T03:53:31;1.70;99.90
13960;DHT22;7052;51.050;3.716;2023-03-01T03:55:58;1.70;99.90
13960;DHT22;7052;51.050;3.716;2023-03-01T03:58:25;1.70;99.90
13960;DHT22;7052;51.050;3.716;2023-03-01T04:00:55;1.70;99.90
13960;DHT22;7052;51.050;3.716;2023-03-01T04:03:25;1.70;99.90
13960;DHT22;7052;51.050;3.716;2023-03-01T04:05:52;1.70;99.90
13960;DHT22;7052;51.050;3.716;2023-03-01T04:08:21;1.70;99.90
13960;DHT22;7052;51.050;3.716;2023-03-01T04:10:51;1.70;99.90
13960;DHT22;7052;51.050;3.716;2023-03-01T04:13:19;1.70;99.90
13960;DHT22;7052;51.050;3.716;2023-03-01T04:15:48;1.70;99.90
13960;DHT22;7052;51.050;3.716;2023-03-01T04:18:16;1.70;99.90
13960;DHT22;7052;51.050;3.716;2023-03-01T04:20:46;1.80;99.90
13960;DHT22;7052;51.050;3.716;2023-03-01T04:23:15;1.70;99.90
13960;DHT22;7052;51.050;3.716;2023-03-01T04:25:48;1.70;99.90
13960;DHT22;7052;51.050;3.716;2023-03-01T04:28:19;1.70;99.90
13960;DHT22;7052;51.050;3.716;2023-03-01T04:30:46;1.70;99.90
13960;DHT22;7052;51.050;3.716;2023-03-01T04:33:13;1.70;99.90
13960;DHT22;7052;51.050;3.716;2023-03-01T04:35:40;1.70;99.90
13960;DHT22;7052;51.050;3.716;2023-03-01T04:38:07;1.70;99.90
13960;DHT22;7052;51.050;3.716;2023-03-01T04:40:34;1.60;99.90
13960;DHT22;7052;51.050;3.716;2023-03-01T04:43:03;1.70;99.90
13960;DHT22;7052;51.050;3.716;2023-03-01T04:45:32;1.60;99.90
13960;DHT22;7052;51.050;3.716;2023-03-01T04:47:59;1.60;99.90
13960;DHT22;7052;51.050;3.716;2023-03-01T04:50:28;1.60;99.90
13960;DHT22;7052;51.050;3.716;2023-03-01T04:52:56;1.50;99.90
13960;DHT22;7052;51.050;3.716;2023-03-01T04:55:25;1.50;99.90
13960;DHT22;7052;51.050;3.716;2023-03-01T04:57:53;1.50;99.90
13960;DHT22;7052;51.050;3.716;2023-03-01T05:00:23;1.40;99.90
13960;DHT22;7052;51.050;3.716;2023-03-01T05:02:52;1.40;99.90
13960;DHT22;7052;51.050;3.716;2023-03-01T05:05:25;1.40;99.90
13960;DHT22;7052;51.050;3.716;2023-03-01T05:07:53;1.40;99.90
13960;DHT22;7052;51.050;3.716;2023-03-01T05:10:21;1.40;99.90
13960;DHT22;7052;51.050;3.716;2023-03-01T05:12:48;1.40;99.90
13960;DHT22;7052;51.050;3.716;2023-03-01T05:15:15;1.40;99.90
13960;DHT22;7052;51.050;3.716;2023-03-01T05:17:52;1.40;99.90
13960;DHT22;7052;51.050;3.716;2023-03-01T05:20:20;1.40;99.90
13960;DHT22;7052;51.050;3.716;2023-03-01T05:22:49;1.30;99.90
13960;DHT22;7052;51.050;3.716;2023-03-01T05:25:16;1.30;99.90
13960;DHT22;7052;51.050;3.716;2023-03-01T05:27:43;1.30;99.90
13960;DHT22;7052;51.050;3.716;2023-03-01T05:30:11;1.20;99.90
13960;DHT22;7052;51.050;3.716;2023-03-01T05:32:41;1.20;99.90
13960;DHT22;7052;51.050;3.716;2023-03-01T05:35:11;1.20;99.90
13960;DHT22;7052;51.050;3.716;2023-03-01T05:37:41;1.20;99.90
13960;DHT22;7052;51.050;3.716;2023-03-01T05:40:09;1.20;99.90
13960;DHT22;7052;51.050;3.716;2023-03-01T05:42:42;1.20;99.90
13960;DHT22;7052;51.050;3.716;2023-03-01T05:45:11;1.20;99.90
13960;DHT22;7052;51.050;3.716;2023-03-01T05:47:39;1.20;99.90
13960;DHT22;7052;51.050;3.716;2023-03-01T05:50:25;1.20;99.90
13960;DHT22;7052;51.050;3.716;2023-03-01T05:52:59;1.20;99.90
13960;DHT22;7052;51.050;3.716;2023-03-01T05:55:26;1.20;99.90
13960;DHT22;7052;51.050;3.716;2023-03-01T05:57:54;1.10;99.90
13960;DHT22;7052;51.050;3.716;2023-03-01T06:00:21;1.10;99.90
13960;DHT22;7052;51.050;3.716;2023-03-01T06:02:49;1.10;99.90
13960;DHT22;7052;51.050;3.716;2023-03-01T06:05:18;1.10;99.90
13960;DHT22;7052;51.050;3.716;2023-03-01T06:07:45;1.10;99.90
13960;DHT22;7052;51.050;3.716;2023-03-01T06:10:12;1.10;99.90
13960;DHT22;7052;51.050;3.716;2023-03-01T06:12:41;1.00;99.90
13960;DHT22;7052;51.050;3.716;2023-03-01T06:15:10;1.00;99.90
13960;DHT22;7052;51.050;3.716;2023-03-01T06:17:39;1.00;99.90
13960;DHT22;7052;51.050;3.716;2023-03-01T06:20:08;1.00;99.90
13960;DHT22;7052;51.050;3.716;2023-03-01T06:22:38;1.00;99.90
13960;DHT22;7052;51.050;3.716;2023-03-01T06:25:06;1.00;99.90
13960;DHT22;7052;51.050;3.716;2023-03-01T06:27:33;1.00;99.90
13960;DHT22;7052;51.050;3.716;2023-03-01T06:30:00;1.10;99.90
13960;DHT22;7052;51.050;3.716;2023-03-01T06:32:28;1.00;99.90
13960;DHT22;7052;51.050;3.716;2023-03-01T06:34:58;1.00;99.90
13960;DHT22;7052;51.050;3.716;2023-03-01T06:37:25;1.50;99.90
13960;DHT22;7052;51.050;3.716;2023-03-01T06:39:54;1.00;99.90
13960;DHT22;7052;51.050;3.716;2023-03-01T06:42:22;1.00;99.90
13960;DHT22;7052;51.050;3.716;2023-03-01T06:44:51;1.10;99.90
13960;DHT22;7052;51.050;3.716;2023-03-01T06:47:18;1.00;99.90
13960;DHT22;7052;51.050;3.716;2023-03-01T06:49:45;1.00;99.90
13960;DHT22;7052;51.050;3.716;2023-03-01T06:52:14;1.10;99.90
13960;DHT22;7052;51.050;3.716;2023-03-01T06:54:44;1.10;99.90
13960;DHT22;7052;51.050;3.716;2023-03-01T06:57:12;1.10;99.90
13960;DHT22;7052;51.050;3.716;2023-03-01T06:59:39;1.10;99.90
13960;DHT22;7052;51.050;3.716;2023-03-01T07:02:08;1.10;99.90
13960;DHT22;7052;51.050;3.716;2023-03-01T07:04:35;1.10;99.90
13960;DHT22;7052;51.050;3.716;2023-03-01T07:07:02;1.10;99.90
13960;DHT22;7052;51.050;3.716;2023-03-01T07:09:29;1.10;99.90
13960;DHT22;7052;51.050;3.716;2023-03-01T07:11:57;1.10;99.90
13960;DHT22;7052;51.050;3.716;2023-03-01T07:14:25;1.20;99.90
13960;DHT22;7052;51.050;3.716;2023-03-01T07:16:53;1.20;99.90
13960;DHT22;7052;51.050;3.716;2023-03-01T07:19:22;1.20;99.90
13960;DHT22;7052;51.050;3.716;2023-03-01T07:21:50;1.20;99.90
13960;DHT22;7052;51.050;3.716;2023-03-01T07:24:16;1.30;99.90
13960;DHT22;7052;51.050;3.716;2023-03-01T07:26:44;1.30;99.90
13960;DHT22;7052;51.050;3.716;2023-03-01T07:29:11;1.40;99.90
13960;DHT22;7052;51.050;3.716;2023-03-01T07:31:40;1.40;99.90
13960;DHT22;7052;51.050;3.716;2023-03-01T07:34:07;1.50;99.90
13960;DHT22;7052;51.050;3.716;2023-03-01T07:36:38;1.60;99.90
13960;DHT22;7052;51.050;3.716;2023-03-01T07:39:09;1.70;99.90
13960;DHT22;7052;51.050;3.716;2023-03-01T07:41:36;1.70;99.90
13960;DHT22;7052;51.050;3.716;2023-03-01T07:44:03;1.70;99.90
13960;DHT22;7052;51.050;3.716;2023-03-01T07:46:31;1.80;99.90
13960;DHT22;7052;51.050;3.716;2023-03-01T07:48:59;1.90;99.90
13960;DHT22;7052;51.050;3.716;2023-03-01T07:51:27;2.00;99.90
13960;DHT22;7052;51.050;3.716;2023-03-01T07:53:54;2.10;99.90
13960;DHT22;7052;51.050;3.716;2023-03-01T07:56:25;2.10;99.90
13960;DHT22;7052;51.050;3.716;2023-03-01T07:58:52;2.20;99.90
13960;DHT22;7052;51.050;3.716;2023-03-01T08:01:20;2.30;99.80
13960;DHT22;7052;51.050;3.716;2023-03-01T08:03:48;2.40;98.70
13960;DHT22;7052;51.050;3.716;2023-03-01T08:06:17;2.40;98.40
13960;DHT22;7052;51.050;3.716;2023-03-01T08:08:44;2.50;97.80
13960;DHT22;7052;51.050;3.716;2023-03-01T08:11:13;2.60;97.80
13960;DHT22;7052;51.050;3.716;2023-03-01T08:13:41;2.70;97.40
13960;DHT22;7052;51.050;3.716;2023-03-01T08:16:13;2.70;96.90
13960;DHT22;7052;51.050;3.716;2023-03-01T08:18:40;2.80;96.20
13960;DHT22;7052;51.050;3.716;2023-03-01T08:21:08;2.90;95.80
13960;DHT22;7052;51.050;3.716;2023-03-01T08:23:38;3.00;95.80
13960;DHT22;7052;51.050;3.716;2023-03-01T08:26:06;3.10;95.50
13960;DHT22;7052;51.050;3.716;2023-03-01T08:28:33;3.20;94.90
13960;DHT22;7052;51.050;3.716;2023-03-01T08:31:01;3.30;94.40
13960;DHT22;7052;51.050;3.716;2023-03-01T08:33:27;3.30;94.00
13960;DHT22;7052;51.050;3.716;2023-03-01T08:36:02;3.40;93.80
13960;DHT22;7052;51.050;3.716;2023-03-01T08:38:29;3.50;93.10
13960;DHT22;7052;51.050;3.716;2023-03-01T08:41:00;3.50;92.50
13960;DHT22;7052;51.050;3.716;2023-03-01T08:43:27;3.60;92.60
13960;DHT22;7052;51.050;3.716;2023-03-01T08:45:54;3.70;92.70
13960;DHT22;7052;51.050;3.716;2023-03-01T08:48:21;3.80;91.90
13960;DHT22;7052;51.050;3.716;2023-03-01T08:50:48;3.90;91.30
13960;DHT22;7052;51.050;3.716;2023-03-01T08:53:15;4.00;90.80
13960;DHT22;7052;51.050;3.716;2023-03-01T08:55:42;4.00;90.30
13960;DHT22;7052;51.050;3.716;2023-03-01T08:58:11;4.10;90.20
13960;DHT22;7052;51.050;3.716;2023-03-01T09:00:38;4.10;90.00
13960;DHT22;7052;51.050;3.716;2023-03-01T09:03:05;4.10;90.30
13960;DHT22;7052;51.050;3.716;2023-03-01T09:05:32;4.20;90.30
13960;DHT22;7052;51.050;3.716;2023-03-01T09:07:59;4.30;86.90
13960;DHT22;7052;51.050;3.716;2023-03-01T09:10:26;4.30;86.10
13960;DHT22;7052;51.050;3.716;2023-03-01T09:12:53;4.40;84.70
13960;DHT22;7052;51.050;3.716;2023-03-01T09:15:21;4.40;84.30
13960;DHT22;7052;51.050;3.716;2023-03-01T09:17:48;4.50;85.00
13960;DHT22;7052;51.050;3.716;2023-03-01T09:20:15;4.50;84.00
13960;DHT22;7052;51.050;3.716;2023-03-01T09:22:43;4.60;82.60
13960;DHT22;7052;51.050;3.716;2023-03-01T09:25:10;4.60;81.20
13960;DHT22;7052;51.050;3.716;2023-03-01T09:27:38;4.60;80.20
13960;DHT22;7052;51.050;3.716;2023-03-01T09:30:06;4.70;81.10
13960;DHT22;7052;51.050;3.716;2023-03-01T09:32:34;4.70;80.20
13960;DHT22;7052;51.050;3.716;2023-03-01T09:35:01;4.70;79.10
13960;DHT22;7052;51.050;3.716;2023-03-01T09:37:36;4.70;80.40
13960;DHT22;7052;51.050;3.716;2023-03-01T09:40:05;4.70;80.90
13960;DHT22;7052;51.050;3.716;2023-03-01T09:42:34;4.90;78.70
13960;DHT22;7052;51.050;3.716;2023-03-01T09:45:04;4.90;78.50
13960;DHT22;7052;51.050;3.716;2023-03-01T09:47:35;5.00;77.90
13960;DHT22;7052;51.050;3.716;2023-03-01T09:50:05;5.00;77.70
13960;DHT22;7052;51.050;3.716;2023-03-01T09:52:37;5.10;76.20
13960;DHT22;7052;51.050;3.716;2023-03-01T09:55:10;5.10;73.80
13960;DHT22;7052;51.050;3.716;2023-03-01T09:57:43;5.00;73.40
13960;DHT22;7052;51.050;3.716;2023-03-01T10:00:29;5.10;73.90
13960;DHT22;7052;51.050;3.716;2023-03-01T10:03:02;5.00;74.50
13960;DHT22;7052;51.050;3.716;2023-03-01T10:05:48;5.10;73.00
13960;DHT22;7052;51.050;3.716;2023-03-01T10:08:36;5.10;73.00
13960;DHT22;7052;51.050;3.716;2023-03-01T10:11:18;5.20;70.60
13960;DHT22;7052;51.050;3.716;2023-03-01T10:13:50;5.20;67.50
13960;DHT22;7052;51.050;3.716;2023-03-01T10:16:24;5.20;68.70
13960;DHT22;7052;51.050;3.716;2023-03-01T10:18:58;5.20;69.60
13960;DHT22;7052;51.050;3.716;2023-03-01T10:21:27;5.30;69.10
13960;DHT22;7052;51.050;3.716;2023-03-01T10:23:57;5.30;67.10
13960;DHT22;7052;51.050;3.716;2023-03-01T10:26:38;5.40;66.10
13960;DHT22;7052;51.050;3.716;2023-03-01T10:29:08;5.40;60.60
13960;DHT22;7052;51.050;3.716;2023-03-01T10:31:43;5.50;60.00
13960;DHT22;7052;51.050;3.716;2023-03-01T10:34:15;5.50;59.90
13960;DHT22;7052;51.050;3.716;2023-03-01T10:36:44;5.50;58.70
13960;DHT22;7052;51.050;3.716;2023-03-01T10:39:19;5.60;58.20
13960;DHT22;7052;51.050;3.716;2023-03-01T10:41:56;5.70;57.40
13960;DHT22;7052;51.050;3.716;2023-03-01T10:44:43;5.80;56.90
13960;DHT22;7052;51.050;3.716;2023-03-01T10:47:16;5.80;57.30
13960;DHT22;7052;51.050;3.716;2023-03-01T10:49:57;5.90;57.00
13960;DHT22;7052;51.050;3.716;2023-03-01T10:52:27;5.90;56.60
13960;DHT22;7052;51.050;3.716;2023-03-01T10:54:57;6.10;54.60
13960;DHT22;7052;51.050;3.716;2023-03-01T10:57:33;6.00;53.60
13960;DHT22;7052;51.050;3.716;2023-03-01T11:00:21;6.10;52.70
13960;DHT22;7052;51.050;3.716;2023-03-01T11:02:50;6.10;53.20
13960;DHT22;7052;51.050;3.716;2023-03-01T11:05:22;6.20;52.50
13960;DHT22;7052;51.050;3.716;2023-03-01T11:07:53;6.10;52.20
13960;DHT22;7052;51.050;3.716;2023-03-01T11:10:23;6.10;52.40
13960;DHT22;7052;51.050;3.716;2023-03-01T11:12:51;6.20;51.70
13960;DHT22;7052;51.050;3.716;2023-03-01T11:15:25;6.20;51.80
13960;DHT22;7052;51.050;3.716;2023-03-01T11:17:53;6.20;51.40
13960;DHT22;7052;51.050;3.716;2023-03-01T11:20:29;6.30;51.30
13960;DHT22;7052;51.050;3.716;2023-03-01T11:23:01;6.30;50.80
13960;DHT22;7052;51.050;3.716;2023-03-01T11:25:32;6.40;51.00
13960;DHT22;7052;51.050;3.716;2023-03-01T11:28:04;6.50;50.60
13960;DHT22;7052;51.050;3.716;2023-03-01T11:30:34;6.60;50.10
13960;DHT22;7052;51.050;3.716;2023-03-01T11:33:13;6.60;50.10
13960;DHT22;7052;51.050;3.716;2023-03-01T11:35:50;6.60;50.60
13960;DHT22;7052;51.050;3.716;2023-03-01T11:38:26;6.60;50.60
13960;DHT22;7052;51.050;3.716;2023-03-01T11:40:57;6.70;50.40
13960;DHT22;7052;51.050;3.716;2023-03-01T11:43:35;6.80;49.90
13960;DHT22;7052;51.050;3.716;2023-03-01T11:46:26;6.90;49.60
13960;DHT22;7052;51.050;3.716;2023-03-01T11:49:05;6.90;49.90
13960;DHT22;7052;51.050;3.716;2023-03-01T11:51:45;6.90;49.80
13960;DHT22;7052;51.050;3.716;2023-03-01T11:54:29;7.00;49.40
13960;DHT22;7052;51.050;3.716;2023-03-01T11:57:01;7.00;49.00
13960;DHT22;7052;51.050;3.716;2023-03-01T11:59:45;7.00;48.50
13960;DHT22;7052;51.050;3.716;2023-03-01T12:02:59;7.10;48.60
13960;DHT22;7052;51.050;3.716;2023-03-01T12:05:54;7.20;47.50
13960;DHT22;7052;51.050;3.716;2023-03-01T12:08:47;7.30;47.40
13960;DHT22;7052;51.050;3.716;2023-03-01T12:11:33;7.30;47.20
13960;DHT22;7052;51.050;3.716;2023-03-01T12:14:25;7.30;47.90
13960;DHT22;7052;51.050;3.716;2023-03-01T12:17:12;7.30;48.10
13960;DHT22;7052;51.050;3.716;2023-03-01T12:19:57;7.40;48.50
13960;DHT22;7052;51.050;3.716;2023-03-01T12:22:31;7.50;48.80
13960;DHT22;7052;51.050;3.716;2023-03-01T12:25:25;7.50;48.70
13960;DHT22;7052;51.050;3.716;2023-03-01T12:28:09;7.60;48.10
13960;DHT22;7052;51.050;3.716;2023-03-01T12:30:57;7.60;47.80
13960;DHT22;7052;51.050;3.716;2023-03-01T12:33:32;7.60;47.80
13960;DHT22;7052;51.050;3.716;2023-03-01T12:36:31;7.70;47.10
13960;DHT22;7052;51.050;3.716;2023-03-01T12:39:15;7.70;47.20
13960;DHT22;7052;51.050;3.716;2023-03-01T12:41:57;7.70;47.40
13960;DHT22;7052;51.050;3.716;2023-03-01T12:44:47;7.80;46.80
13960;DHT22;7052;51.050;3.716;2023-03-01T12:47:31;7.90;46.50
13960;DHT22;7052;51.050;3.716;2023-03-01T12:50:03;8.00;45.50
13960;DHT22;7052;51.050;3.716;2023-03-01T12:52:37;7.90;45.50
13960;DHT22;7052;51.050;3.716;2023-03-01T12:55:15;7.80;46.00
13960;DHT22;7052;51.050;3.716;2023-03-01T12:57:49;7.90;45.50
13960;DHT22;7052;51.050;3.716;2023-03-01T13:00:27;7.90;44.80
13960;DHT22;7052;51.050;3.716;2023-03-01T13:03:00;7.90;44.70
13960;DHT22;7052;51.050;3.716;2023-03-01T13:05:39;7.90;45.40
13960;DHT22;7052;51.050;3.716;2023-03-01T13:08:15;7.90;45.90
13960;DHT22;7052;51.050;3.716;2023-03-01T13:10:49;7.90;46.10
13960;DHT22;7052;51.050;3.716;2023-03-01T13:13:23;7.90;45.80
13960;DHT22;7052;51.050;3.716;2023-03-01T13:15:52;7.80;45.80
13960;DHT22;7052;51.050;3.716;2023-03-01T13:18:31;7.90;45.20
13960;DHT22;7052;51.050;3.716;2023-03-01T13:21:00;8.00;44.80
13960;DHT22;7052;51.050;3.716;2023-03-01T13:23:32;8.00;44.50
13960;DHT22;7052;51.050;3.716;2023-03-01T13:26:15;8.00;44.80
13960;DHT22;7052;51.050;3.716;2023-03-01T13:28:58;7.90;45.10
13960;DHT22;7052;51.050;3.716;2023-03-01T13:31:59;8.00;45.20
13960;DHT22;7052;51.050;3.716;2023-03-01T13:37:31;8.10;45.50
13960;DHT22;7052;51.050;3.716;2023-03-01T13:40:02;8.10;45.80
13960;DHT22;7052;51.050;3.716;2023-03-01T13:42:43;8.20;46.20
13960;DHT22;7052;51.050;3.716;2023-03-01T13:45:32;8.30;45.60
13960;DHT22;7052;51.050;3.716;2023-03-01T13:48:03;8.40;45.00
13960;DHT22;7052;51.050;3.716;2023-03-01T13:50:43;8.40;45.00
13960;DHT22;7052;51.050;3.716;2023-03-01T13:53:16;8.30;45.40
13960;DHT22;7052;51.050;3.716;2023-03-01T13:55:46;8.30;45.70
13960;DHT22;7052;51.050;3.716;2023-03-01T13:58:22;8.30;45.60
13960;DHT22;7052;51.050;3.716;2023-03-01T14:01:03;8.30;45.90
13960;DHT22;7052;51.050;3.716;2023-03-01T14:03:33;8.40;45.60
13960;DHT22;7052;51.050;3.716;2023-03-01T14:06:04;8.40;45.80
13960;DHT22;7052;51.050;3.716;2023-03-01T14:08:34;8.40;46.10
13960;DHT22;7052;51.050;3.716;2023-03-01T14:14:18;8.40;45.70
13960;DHT22;7052;51.050;3.716;2023-03-01T14:16:55;8.40;45.50
13960;DHT22;7052;51.050;3.716;2023-03-01T14:19:26;8.40;45.70
13960;DHT22;7052;51.050;3.716;2023-03-01T14:24:24;8.40;46.20
13960;DHT22;7052;51.050;3.716;2023-03-01T14:26:59;8.30;46.30
13960;DHT22;7052;51.050;3.716;2023-03-01T14:29:34;8.30;46.60
13960;DHT22;7052;51.050;3.716;2023-03-01T14:32:15;8.30;46.10
13960;DHT22;7052;51.050;3.716;2023-03-01T14:34:50;8.20;45.70
13960;DHT22;7052;51.050;3.716;2023-03-01T14:37:22;8.20;45.90
13960;DHT22;7052;51.050;3.716;2023-03-01T14:39:51;8.20;46.40
13960;DHT22;7052;51.050;3.716;2023-03-01T14:42:20;8.20;46.70
13960;DHT22;7052;51.050;3.716;2023-03-01T14:44:50;8.10;46.80
13960;DHT22;7052;51.050;3.716;2023-03-01T14:47:26;8.20;46.80
13960;DHT22;7052;51.050;3.716;2023-03-01T14:49:57;8.10;46.60
13960;DHT22;7052;51.050;3.716;2023-03-01T14:52:32;8.10;46.80
13960;DHT22;7052;51.050;3.716;2023-03-01T14:55:05;8.10;47.20
13960;DHT22;7052;51.050;3.716;2023-03-01T14:57:35;8.00;47.20
13960;DHT22;7052;51.050;3.716;2023-03-01T15:00:05;8.00;47.40
13960;DHT22;7052;51.050;3.716;2023-03-01T15:02:36;8.00;47.20
13960;DHT22;7052;51.050;3.716;2023-03-01T15:05:15;8.00;47.20
13960;DHT22;7052;51.050;3.716;2023-03-01T15:07:46;8.00;47.20
13960;DHT22;7052;51.050;3.716;2023-03-01T15:10:21;8.00;47.40
13960;DHT22;7052;51.050;3.716;2023-03-01T15:12:50;8.10;47.10
13960;DHT22;7052;51.050;3.716;2023-03-01T15:15:26;8.00;47.10
13960;DHT22;7052;51.050;3.716;2023-03-01T15:18:05;8.00;47.20
13960;DHT22;7052;51.050;3.716;2023-03-01T15:20:40;8.00;47.50
13960;DHT22;7052;51.050;3.716;2023-03-01T15:23:19;7.90;47.70
13960;DHT22;7052;51.050;3.716;2023-03-01T15:25:47;7.80;47.90
13960;DHT22;7052;51.050;3.716;2023-03-01T15:28:24;7.80;48.00
13960;DHT22;7052;51.050;3.716;2023-03-01T15:30:55;7.90;47.70
13960;DHT22;7052;51.050;3.716;2023-03-01T15:33:36;7.80;47.40
13960;DHT22;7052;51.050;3.716;2023-03-01T15:36:30;7.80;47.40
13960;DHT22;7052;51.050;3.716;2023-03-01T15:38:58;7.70;47.70
13960;DHT22;7052;51.050;3.716;2023-03-01T15:41:30;7.80;47.90
13960;DHT22;7052;51.050;3.716;2023-03-01T15:43:58;7.80;47.40
13960;DHT22;7052;51.050;3.716;2023-03-01T15:46:28;7.80;47.30
13960;DHT22;7052;51.050;3.716;2023-03-01T15:49:05;7.80;47.60
13960;DHT22;7052;51.050;3.716;2023-03-01T15:51:35;7.80;46.90
13960;DHT22;7052;51.050;3.716;2023-03-01T15:54:17;7.70;47.20
13960;DHT22;7052;51.050;3.716;2023-03-01T15:56:46;7.70;47.10
13960;DHT22;7052;51.050;3.716;2023-03-01T15:59:16;7.60;47.50
13960;DHT22;7052;51.050;3.716;2023-03-01T16:01:48;7.60;47.50
13960;DHT22;7052;51.050;3.716;2023-03-01T16:04:20;7.50;47.70
13960;DHT22;7052;51.050;3.716;2023-03-01T16:06:53;7.40;48.60
13960;DHT22;7052;51.050;3.716;2023-03-01T16:09:22;7.40;48.30
13960;DHT22;7052;51.050;3.716;2023-03-01T16:11:50;7.30;48.30
13960;DHT22;7052;51.050;3.716;2023-03-01T16:14:19;7.30;48.50
13960;DHT22;7052;51.050;3.716;2023-03-01T16:16:50;7.20;48.80
13960;DHT22;7052;51.050;3.716;2023-03-01T16:19:22;7.20;49.20
13960;DHT22;7052;51.050;3.716;2023-03-01T16:21:50;7.20;49.40
13960;DHT22;7052;51.050;3.716;2023-03-01T16:24:17;7.10;49.10
13960;DHT22;7052;51.050;3.716;2023-03-01T16:26:44;7.10;49.20
13960;DHT22;7052;51.050;3.716;2023-03-01T16:29:13;7.00;49.20
13960;DHT22;7052;51.050;3.716;2023-03-01T16:31:41;7.00;49.30
13960;DHT22;7052;51.050;3.716;2023-03-01T16:34:14;7.00;49.40
13960;DHT22;7052;51.050;3.716;2023-03-01T16:36:43;7.00;49.70
13960;DHT22;7052;51.050;3.716;2023-03-01T16:39:10;6.90;49.80
13960;DHT22;7052;51.050;3.716;2023-03-01T16:41:38;6.90;50.10
13960;DHT22;7052;51.050;3.716;2023-03-01T16:44:05;6.90;50.20